sensor_id;sensor_type;location;lat;lon;timestamp;temperature;humidity
19906;DHT22;10115;50.906;4.438;2023-01-29T00:00:12;-0.50;99.90
19906;DHT22;10115;50.906;4.438;2023-01-29T00:02:37;-0.50;99.90
19906;DHT22;10115;50.906;4.438;2023-01-29T00:05:04;-0.50;99.90
19906;DHT22;10115;50.906;4.438;2023-01-29T00:07:31;-0.60;99.90
19906;DHT22;10115;50.906;4.438;2023-01-29T00:09:57;-0.60;99.90
19906;DHT22;10115;50.906;4.438;2023-01-29T00:12:22;-0.60;99.90
19906;DHT22;10115;50.906;4.438;2023-01-29T00:14:48;-0.60;99.90
19906;DHT22;10115;50.906;4.438;2023-01-29T00:17:14;-0.60;99.90
19906;DHT22;10115;50.906;4.438;2023-01-29T00:19:39;-0.50;99.90
19906;DHT22;10115;50.906;4.438;2023-01-29T00:22:06;-0.50;99.90
19906;DHT22;10115;50.906;4.438;2023-01-29T00:24:32;-0.50;99.90
19906;DHT22;10115;50.906;4.438;2023-01-29T00:26:58;-0.50;99.90
19906;DHT22;10115;50.906;4.438;2023-01-29T00:29:23;-0.60;99.90
19906;DHT22;10115;50.906;4.438;2023-01-29T00:31:51;-0.60;99.90
19906;DHT22;10115;50.906;4.438;2023-01-29T00:34:16;-0.50;99.90
19906;DHT22;10115;50.906;4.438;2023-01-29T00:36:42;-0.60;99.90
19906;DHT22;10115;50.906;4.438;2023-01-29T00:39:09;-0.50;99.90
19906;DHT22;10115;50.906;4.438;2023-01-29T00:41:36;-0.60;99.90
19906;DHT22;10115;50.906;4.438;2023-01-29T00:44:21;-0.60;99.90
19906;DHT22;10115;50.906;4.438;2023-01-29T00:47:06;-0.50;99.90
19906;DHT22;10115;50.906;4.438;2023-01-29T00:49:50;-0.40;99.90
19906;DHT22;10115;50.906;4.438;2023-01-29T00:52:16;-0.60;99.90
19906;DHT22;10115;50.906;4.438;2023-01-29T00:55:00;-0.50;99.90
19906;DHT22;10115;50.906;4.438;2023-01-29T00:57:27;-0.60;99.90
19906;DHT22;10115;50.906;4.438;2023-01-29T00:59:53;-0.60;99.90
19906;DHT22;10115;50.906;4.438;2023-01-29T01:02:20;-0.50;99.90
19906;DHT22;10115;50.906;4.438;2023-01-29T01:05:05;-0.50;99.90
19906;DHT22;10115;50.906;4.438;2023-01-29T01:07:38;-0.50;99.90
19906;DHT22;10115;50.906;4.438;2023-01-29T01:10:15;-0.40;99.90
19906;DHT22;10115;50.906;4.438;2023-01-29T01:13:01;-0.40;99.90
19906;DHT22;10115;50.906;4.438;2023-01-29T01:15:35;-0.30;99.90
19906;DHT22;10115;50.906;4.438;2023-01-29T01:18:01;0.00;99.90
19906;DHT22;10115;50.906;4.438;2023-01-29T01:20:29;-0.20;99.90
19906;DHT22;10115;50.906;4.438;2023-01-29T01:22:56;-0.30;99.90
19906;DHT22;10115;50.906;4.438;2023-01-29T01:25:23;-0.50;99.90
19906;DHT22;10115;50.906;4.438;2023-01-29T01:27:53;-0.60;99.90
19906;DHT22;10115;50.906;4.438;2023-01-29T01:30:19;-0.70;99.90
19906;DHT22;10115;50.906;4.438;2023-01-29T01:32:45;-0.70;99.90
19906;DHT22;10115;50.906;4.438;2023-01-29T01:35:11;-0.60;99.90
19906;DHT22;10115;50.906;4.438;2023-01-29T01:37:39;-0.60;99.90
19906;DHT22;10115;50.906;4.438;2023-01-29T01:40:06;-0.60;99.90
19906;DHT22;10115;50.906;4.438;2023-01-29T01:42:38;-0.70;99.90
19906;DHT22;10115;50.906;4.438;2023-01-29T01:45:05;-0.70;99.90
19906;DHT22;10115;50.906;4.438;2023-01-29T01:47:49;-0.80;99.90
19906;DHT22;10115;50.906;4.438;2023-01-29T01:53:08;-0.80;99.90
19906;DHT22;10115;50.906;4.438;2023-01-29T01:55:43;-0.80;99.90
19906;DHT22;10115;50.906;4.438;2023-01-29T01:58:19;-0.90;99.90
19906;DHT22;10115;50.906;4.438;2023-01-29T02:00:46;-0.90;99.90
19906;DHT22;10115;50.906;4.438;2023-01-29T02:03:12;-0.90;99.90
19906;DHT22;10115;50.906;4.438;2023-01-29T02:05:58;-0.90;99.90
19906;DHT22;10115;50.906;4.438;2023-01-29T02:08:59;-1.00;99.90
19906;DHT22;10115;50.906;4.438;2023-01-29T02:11:44;-1.00;99.90
19906;DHT22;10115;50.906;4.438;2023-01-29T02:14:10;-1.10;99.90
19906;DHT22;10115;50.906;4.438;2023-01-29T02:16:36;-1.10;99.90
19906;DHT22;10115;50.906;4.438;2023-01-29T02:19:13;-1.10;99.90
19906;DHT22;10115;50.906;4.438;2023-01-29T02:25:01;-1.10;99.90
19906;DHT22;10115;50.906;4.438;2023-01-29T02:30:19;-1.10;99.90
19906;DHT22;10115;50.906;4.438;2023-01-29T02:32:58;-1.20;99.90
19906;DHT22;10115;50.906;4.438;2023-01-29T02:35:31;-1.20;99.90
19906;DHT22;10115;50.906;4.438;2023-01-29T02:40:42;-1.30;99.90
19906;DHT22;10115;50.906;4.438;2023-01-29T02:45:49;-1.30;99.90
19906;DHT22;10115;50.906;4.438;2023-01-29T02:48:19;-1.40;99.90
19906;DHT22;10115;50.906;4.438;2023-01-29T02:50:59;-1.40;99.90
19906;DHT22;10115;50.906;4.438;2023-01-29T02:56:20;-1.30;99.90
19906;DHT22;10115;50.906;4.438;2023-01-29T02:58:56;-1.40;99.90
19906;DHT22;10115;50.906;4.438;2023-01-29T03:01:29;-1.40;99.90
19906;DHT22;10115;50.906;4.438;2023-01-29T03:04:03;-1.40;99.90
19906;DHT22;10115;50.906;4.438;2023-01-29T03:06:56;-1.40;99.90
19906;DHT22;10115;50.906;4.438;2023-01-29T03:09:32;-1.40;99.90
19906;DHT22;10115;50.906;4.438;2023-01-29T03:12:08;-1.40;99.90
19906;DHT22;10115;50.906;4.438;2023-01-29T03:14:46;-1.40;99.90
19906;DHT22;10115;50.906;4.438;2023-01-29T03:20:30;-1.40;99.90
19906;DHT22;10115;50.906;4.438;2023-01-29T03:23:28;-1.40;99.90
19906;DHT22;10115;50.906;4.438;2023-01-29T03:26:18;-1.40;99.90
19906;DHT22;10115;50.906;4.438;2023-01-29T03:29:05;-1.40;99.90
19906;DHT22;10115;50.906;4.438;2023-01-29T03:31:51;-1.50;99.90
19906;DHT22;10115;50.906;4.438;2023-01-29T03:34:30;-1.40;99.90
19906;DHT22;10115;50.906;4.438;2023-01-29T03:37:30;-1.40;99.90
19906;DHT22;10115;50.906;4.438;2023-01-29T03:40:01;-1.40;99.90
19906;DHT22;10115;50.906;4.438;2023-01-29T03:50:33;-1.50;99.90
19906;DHT22;10115;50.906;4.438;2023-01-29T03:53:07;-1.50;99.90
19906;DHT22;10115;50.906;4.438;2023-01-29T03:55:52;-1.40;99.90
19906;DHT22;10115;50.906;4.438;2023-01-29T03:58:36;-1.30;99.90
19906;DHT22;10115;50.906;4.438;2023-01-29T04:01:30;-1.20;99.90
19906;DHT22;10115;50.906;4.438;2023-01-29T04:04:08;-1.10;99.90
19906;DHT22;10115;50.906;4.438;2023-01-29T04:06:36;-1.00;99.90
19906;DHT22;10115;50.906;4.438;2023-01-29T04:09:12;-1.10;99.90
19906;DHT22;10115;50.906;4.438;2023-01-29T04:11:44;-1.10;99.90
19906;DHT22;10115;50.906;4.438;2023-01-29T04:14:11;-1.10;99.90
19906;DHT22;10115;50.906;4.438;2023-01-29T04:16:46;-1.10;99.90
19906;DHT22;10115;50.906;4.438;2023-01-29T04:19:12;-1.10;99.90
19906;DHT22;10115;50.906;4.438;2023-01-29T04:21:38;-1.10;99.90
19906;DHT22;10115;50.906;4.438;2023-01-29T04:24:05;-1.20;99.90
19906;DHT22;10115;50.906;4.438;2023-01-29T04:27:13;-1.20;99.90
19906;DHT22;10115;50.906;4.438;2023-01-29T04:30:21;-1.20;99.90
19906;DHT22;10115;50.906;4.438;2023-01-29T04:33:06;-1.10;99.90
19906;DHT22;10115;50.906;4.438;2023-01-29T04:39:23;-1.10;99.90
19906;DHT22;10115;50.906;4.438;2023-01-29T04:47:10;-1.10;99.90
19906;DHT22;10115;50.906;4.438;2023-01-29T04:50:11;-1.10;99.90
19906;DHT22;10115;50.906;4.438;2023-01-29T04:55:42;-1.10;99.90
19906;DHT22;10115;50.906;4.438;2023-01-29T04:58:32;-1.10;99.90
19906;DHT22;10115;50.906;4.438;2023-01-29T05:01:00;-1.10;99.90
19906;DHT22;10115;50.906;4.438;2023-01-29T05:03:30;-1.00;99.90
19906;DHT22;10115;50.906;4.438;2023-01-29T05:05:59;-1.00;99.90
19906;DHT22;10115;50.906;4.438;2023-01-29T05:08:26;-0.90;99.90
19906;DHT22;10115;50.906;4.438;2023-01-29T05:10:56;-0.90;99.90
19906;DHT22;10115;50.906;4.438;2023-01-29T05:13:24;-0.90;99.90
19906;DHT22;10115;50.906;4.438;2023-01-29T05:16:01;-0.80;99.90
19906;DHT22;10115;50.906;4.438;2023-01-29T05:18:28;-0.80;99.90
19906;DHT22;10115;50.906;4.438;2023-01-29T05:21:00;-0.80;99.90
19906;DHT22;10115;50.906;4.438;2023-01-29T05:23:27;-0.70;99.90
19906;DHT22;10115;50.906;4.438;2023-01-29T05:25:53;-0.70;99.90
19906;DHT22;10115;50.906;4.438;2023-01-29T05:28:18;-0.60;99.90
19906;DHT22;10115;50.906;4.438;2023-01-29T05:30:46;-0.50;99.90
19906;DHT22;10115;50.906;4.438;2023-01-29T05:33:24;-0.50;99.90
19906;DHT22;10115;50.906;4.438;2023-01-29T05:35:50;-0.50;99.90
19906;DHT22;10115;50.906;4.438;2023-01-29T05:38:17;-0.50;99.90
19906;DHT22;10115;50.906;4.438;2023-01-29T05:40:43;-0.50;99.90
19906;DHT22;10115;50.906;4.438;2023-01-29T05:43:20;-0.50;99.90
19906;DHT22;10115;50.906;4.438;2023-01-29T05:45:56;-0.50;99.90
19906;DHT22;10115;50.906;4.438;2023-01-29T05:48:23;-0.50;99.90
19906;DHT22;10115;50.906;4.438;2023-01-29T05:50:48;-0.50;99.90
19906;DHT22;10115;50.906;4.438;2023-01-29T05:53:14;-0.50;99.90
19906;DHT22;10115;50.906;4.438;2023-01-29T05:55:43;-0.40;99.90
19906;DHT22;10115;50.906;4.438;2023-01-29T05:58:10;-0.40;99.90
19906;DHT22;10115;50.906;4.438;2023-01-29T06:00:35;-0.30;99.90
19906;DHT22;10115;50.906;4.438;2023-01-29T06:03:01;-0.30;99.90
19906;DHT22;10115;50.906;4.438;2023-01-29T06:05:27;-0.30;99.90
19906;DHT22;10115;50.906;4.438;2023-01-29T06:07:52;-0.30;99.90
19906;DHT22;10115;50.906;4.438;2023-01-29T06:10:18;-0.30;99.90
19906;DHT22;10115;50.906;4.438;2023-01-29T06:12:44;-0.20;99.90
19906;DHT22;10115;50.906;4.438;2023-01-29T06:15:10;-0.20;99.90
19906;DHT22;10115;50.906;4.438;2023-01-29T06:17:36;-0.10;99.90
19906;DHT22;10115;50.906;4.438;2023-01-29T06:20:03;-0.10;99.90
19906;DHT22;10115;50.906;4.438;2023-01-29T06:22:29;-0.10;99.90
19906;DHT22;10115;50.906;4.438;2023-01-29T06:24:55;-0.10;99.90
19906;DHT22;10115;50.906;4.438;2023-01-29T06:27:22;-0.10;99.90
19906;DHT22;10115;50.906;4.438;2023-01-29T06:29:47;0.00;99.90
19906;DHT22;10115;50.906;4.438;2023-01-29T06:32:13;0.10;99.90
19906;DHT22;10115;50.906;4.438;2023-01-29T06:34:39;0.10;99.90
19906;DHT22;10115;50.906;4.438;2023-01-29T06:37:04;0.10;99.90
19906;DHT22;10115;50.906;4.438;2023-01-29T06:39:32;0.10;99.90
19906;DHT22;10115;50.906;4.438;2023-01-29T06:41:58;0.10;99.90
19906;DHT22;10115;50.906;4.438;2023-01-29T06:44:23;0.10;99.90
19906;DHT22;10115;50.906;4.438;2023-01-29T06:46:49;0.10;99.90
19906;DHT22;10115;50.906;4.438;2023-01-29T06:49:15;0.20;99.90
19906;DHT22;10115;50.906;4.438;2023-01-29T06:51:40;0.30;99.90
19906;DHT22;10115;50.906;4.438;2023-01-29T06:54:07;0.40;99.90
19906;DHT22;10115;50.906;4.438;2023-01-29T06:56:33;0.70;99.90
19906;DHT22;10115;50.906;4.438;2023-01-29T06:58:59;0.70;99.90
19906;DHT22;10115;50.906;4.438;2023-01-29T07:01:25;0.40;99.90
19906;DHT22;10115;50.906;4.438;2023-01-29T07:03:50;0.30;99.90
19906;DHT22;10115;50.906;4.438;2023-01-29T07:06:16;0.20;99.90
19906;DHT22;10115;50.906;4.438;2023-01-29T07:08:42;0.20;99.90
19906;DHT22;10115;50.906;4.438;2023-01-29T07:11:08;0.30;99.90
19906;DHT22;10115;50.906;4.438;2023-01-29T07:13:34;0.30;99.90
19906;DHT22;10115;50.906;4.438;2023-01-29T07:16:01;0.30;99.90
19906;DHT22;10115;50.906;4.438;2023-01-29T07:18:27;0.30;99.90
19906;DHT22;10115;50.906;4.438;2023-01-29T07:20:54;0.50;99.90
19906;DHT22;10115;50.906;4.438;2023-01-29T07:23:20;0.60;99.90
19906;DHT22;10115;50.906;4.438;2023-01-29T07:25:46;0.90;99.90
19906;DHT22;10115;50.906;4.438;2023-01-29T07:28:14;0.70;99.90
19906;DHT22;10115;50.906;4.438;2023-01-29T07:30:40;0.50;99.90
19906;DHT22;10115;50.906;4.438;2023-01-29T07:33:07;0.40;99.90
19906;DHT22;10115;50.906;4.438;2023-01-29T07:35:40;0.40;99.90
19906;DHT22;10115;50.906;4.438;2023-01-29T07:38:07;0.50;99.90
19906;DHT22;10115;50.906;4.438;2023-01-29T07:40:33;0.50;99.90
19906;DHT22;10115;50.906;4.438;2023-01-29T07:43:04;0.60;99.90
19906;DHT22;10115;50.906;4.438;2023-01-29T07:45:30;0.70;99.90
19906;DHT22;10115;50.906;4.438;2023-01-29T07:47:57;0.80;99.90
19906;DHT22;10115;50.906;4.438;2023-01-29T07:50:27;1.00;99.90
19906;DHT22;10115;50.906;4.438;2023-01-29T07:52:57;1.30;99.90
19906;DHT22;10115;50.906;4.438;2023-01-29T07:55:23;1.40;99.90
19906;DHT22;10115;50.906;4.438;2023-01-29T07:58:02;1.20;99.90
19906;DHT22;10115;50.906;4.438;2023-01-29T08:00:29;1.10;99.90
19906;DHT22;10115;50.906;4.438;2023-01-29T08:03:08;1.00;99.90
19906;DHT22;10115;50.906;4.438;2023-01-29T08:05:35;0.80;99.90
19906;DHT22;10115;50.906;4.438;2023-01-29T08:08:01;0.80;99.90
19906;DHT22;10115;50.906;4.438;2023-01-29T08:10:27;0.90;99.90
19906;DHT22;10115;50.906;4.438;2023-01-29T08:12:55;0.90;99.90
19906;DHT22;10115;50.906;4.438;2023-01-29T08:15:20;0.90;99.90
19906;DHT22;10115;50.906;4.438;2023-01-29T08:17:46;0.90;99.90
19906;DHT22;10115;50.906;4.438;2023-01-29T08:20:13;1.00;99.90
19906;DHT22;10115;50.906;4.438;2023-01-29T08:22:40;1.20;99.90
19906;DHT22;10115;50.906;4.438;2023-01-29T08:25:05;1.30;99.90
19906;DHT22;10115;50.906;4.438;2023-01-29T08:27:31;1.30;99.90
19906;DHT22;10115;50.906;4.438;2023-01-29T08:29:57;1.20;99.90
19906;DHT22;10115;50.906;4.438;2023-01-29T08:32:22;1.10;99.90
19906;DHT22;10115;50.906;4.438;2023-01-29T08:34:48;1.10;99.90
19906;DHT22;10115;50.906;4.438;2023-01-29T08:37:14;1.00;99.90
19906;DHT22;10115;50.906;4.438;2023-01-29T08:39:41;1.00;99.90
19906;DHT22;10115;50.906;4.438;2023-01-29T08:42:13;1.20;99.90
19906;DHT22;10115;50.906;4.438;2023-01-29T08:44:38;1.40;99.90
19906;DHT22;10115;50.906;4.438;2023-01-29T08:47:04;1.40;99.90
19906;DHT22;10115;50.906;4.438;2023-01-29T08:49:30;1.40;99.90
19906;DHT22;10115;50.906;4.438;2023-01-29T08:51:56;1.30;99.90
19906;DHT22;10115;50.906;4.438;2023-01-29T08:54:22;1.50;99.90
19906;DHT22;10115;50.906;4.438;2023-01-29T08:56:48;1.90;99.90
19906;DHT22;10115;50.906;4.438;2023-01-29T08:59:14;1.80;99.90
19906;DHT22;10115;50.906;4.438;2023-01-29T09:01:40;1.80;99.90
19906;DHT22;10115;50.906;4.438;2023-01-29T09:04:06;1.90;99.90
19906;DHT22;10115;50.906;4.438;2023-01-29T09:06:32;2.20;99.90
19906;DHT22;10115;50.906;4.438;2023-01-29T09:08:58;2.40;99.90
19906;DHT22;10115;50.906;4.438;2023-01-29T09:11:24;2.50;99.90
19906;DHT22;10115;50.906;4.438;2023-01-29T09:13:50;2.30;99.90
19906;DHT22;10115;50.906;4.438;2023-01-29T09:16:15;2.40;99.90
19906;DHT22;10115;50.906;4.438;2023-01-29T09:18:41;2.20;99.90
19906;DHT22;10115;50.906;4.438;2023-01-29T09:21:07;2.20;99.90
19906;DHT22;10115;50.906;4.438;2023-01-29T09:23:33;2.30;99.90
19906;DHT22;10115;50.906;4.438;2023-01-29T09:25:58;2.50;99.90
19906;DHT22;10115;50.906;4.438;2023-01-29T09:28:24;2.70;99.90
19906;DHT22;10115;50.906;4.438;2023-01-29T09:30:50;2.80;99.90
19906;DHT22;10115;50.906;4.438;2023-01-29T09:33:16;3.00;99.90
19906;DHT22;10115;50.906;4.438;2023-01-29T09:35:43;3.00;99.90
19906;DHT22;10115;50.906;4.438;2023-01-29T09:38:11;3.10;99.90
19906;DHT22;10115;50.906;4.438;2023-01-29T09:43:19;3.20;99.90
19906;DHT22;10115;50.906;4.438;2023-01-29T09:45:59;3.00;99.90
19906;DHT22;10115;50.906;4.438;2023-01-29T09:48:29;3.00;99.90
19906;DHT22;10115;50.906;4.438;2023-01-29T09:50:58;3.00;99.90
19906;DHT22;10115;50.906;4.438;2023-01-29T09:56:03;2.60;99.90
19906;DHT22;10115;50.906;4.438;2023-01-29T09:58:37;2.50;99.90
19906;DHT22;10115;50.906;4.438;2023-01-29T10:14:55;2.60;99.90
19906;DHT22;10115;50.906;4.438;2023-01-29T10:23:40;2.60;99.90
19906;DHT22;10115;50.906;4.438;2023-01-29T10:26:11;2.70;99.90
19906;DHT22;10115;50.906;4.438;2023-01-29T10:28:43;2.80;99.90
19906;DHT22;10115;50.906;4.438;2023-01-29T10:31:40;2.80;99.90
19906;DHT22;10115;50.906;4.438;2023-01-29T10:34:16;2.90;99.90
19906;DHT22;10115;50.906;4.438;2023-01-29T10:36:46;2.90;99.90
19906;DHT22;10115;50.906;4.438;2023-01-29T10:39:16;3.00;99.90
19906;DHT22;10115;50.906;4.438;2023-01-29T10:47:11;3.00;99.90
19906;DHT22;10115;50.906;4.438;2023-01-29T10:50:22;3.00;99.90
19906;DHT22;10115;50.906;4.438;2023-01-29T10:58:42;3.10;99.90
19906;DHT22;10115;50.906;4.438;2023-01-29T11:01:10;3.10;99.90
19906;DHT22;10115;50.906;4.438;2023-01-29T11:03:36;3.10;99.90
19906;DHT22;10115;50.906;4.438;2023-01-29T11:06:10;3.10;99.90
19906;DHT22;10115;50.906;4.438;2023-01-29T11:11:46;3.00;99.90
19906;DHT22;10115;50.906;4.438;2023-01-29T11:14:25;3.00;99.90
19906;DHT22;10115;50.906;4.438;2023-01-29T11:16:51;3.10;99.90
19906;DHT22;10115;50.906;4.438;2023-01-29T11:19:17;3.10;99.90
19906;DHT22;10115;50.906;4.438;2023-01-29T11:21:56;3.20;99.90
19906;DHT22;10115;50.906;4.438;2023-01-29T11:24:21;3.30;99.90
19906;DHT22;10115;50.906;4.438;2023-01-29T11:26:48;3.20;99.90
19906;DHT22;10115;50.906;4.438;2023-01-29T11:31:59;3.30;99.90
19906;DHT22;10115;50.906;4.438;2023-01-29T11:34:25;3.50;99.90
19906;DHT22;10115;50.906;4.438;2023-01-29T11:37:02;3.60;99.90
19906;DHT22;10115;50.906;4.438;2023-01-29T11:39:30;3.70;99.90
19906;DHT22;10115;50.906;4.438;2023-01-29T11:42:01;3.70;99.90
19906;DHT22;10115;50.906;4.438;2023-01-29T11:46:54;3.60;99.90
19906;DHT22;10115;50.906;4.438;2023-01-29T11:49:32;3.80;99.90
19906;DHT22;10115;50.906;4.438;2023-01-29T11:52:01;3.70;99.90
19906;DHT22;10115;50.906;4.438;2023-01-29T11:54:32;3.70;99.90
19906;DHT22;10115;50.906;4.438;2023-01-29T11:56:59;3.70;99.90
19906;DHT22;10115;50.906;4.438;2023-01-29T11:59:36;3.80;99.90
19906;DHT22;10115;50.906;4.438;2023-01-29T12:02:16;3.80;99.90
19906;DHT22;10115;50.906;4.438;2023-01-29T12:04:43;4.00;99.90
19906;DHT22;10115;50.906;4.438;2023-01-29T12:07:17;4.00;99.90
19906;DHT22;10115;50.906;4.438;2023-01-29T12:09:57;4.10;99.90
19906;DHT22;10115;50.906;4.438;2023-01-29T12:12:29;4.00;99.90
19906;DHT22;10115;50.906;4.438;2023-01-29T12:15:18;4.10;99.90
19906;DHT22;10115;50.906;4.438;2023-01-29T12:18:13;4.10;99.90
19906;DHT22;10115;50.906;4.438;2023-01-29T12:20:57;4.00;99.90
19906;DHT22;10115;50.906;4.438;2023-01-29T12:26:09;4.00;99.90
19906;DHT22;10115;50.906;4.438;2023-01-29T12:31:53;4.10;99.90
19906;DHT22;10115;50.906;4.438;2023-01-29T12:39:42;4.30;99.90
19906;DHT22;10115;50.906;4.438;2023-01-29T12:44:59;4.00;99.90
19906;DHT22;10115;50.906;4.438;2023-01-29T12:47:46;4.10;99.90
19906;DHT22;10115;50.906;4.438;2023-01-29T12:50:31;4.10;99.90
19906;DHT22;10115;50.906;4.438;2023-01-29T12:53:14;4.10;99.90
19906;DHT22;10115;50.906;4.438;2023-01-29T12:55:48;4.20;99.90
19906;DHT22;10115;50.906;4.438;2023-01-29T12:58:34;4.20;99.90
19906;DHT22;10115;50.906;4.438;2023-01-29T13:01:28;4.40;99.90
19906;DHT22;10115;50.906;4.438;2023-01-29T13:04:06;4.40;99.90
19906;DHT22;10115;50.906;4.438;2023-01-29T13:06:46;4.30;99.90
19906;DHT22;10115;50.906;4.438;2023-01-29T13:09:25;4.30;99.90
19906;DHT22;10115;50.906;4.438;2023-01-29T13:12:04;4.20;99.90
19906;DHT22;10115;50.906;4.438;2023-01-29T13:14:59;4.10;99.90
19906;DHT22;10115;50.906;4.438;2023-01-29T13:17:39;4.20;99.90
19906;DHT22;10115;50.906;4.438;2023-01-29T13:20:25;4.30;99.90
19906;DHT22;10115;50.906;4.438;2023-01-29T13:22:55;4.40;99.90
19906;DHT22;10115;50.906;4.438;2023-01-29T13:25:22;4.60;99.90
19906;DHT22;10115;50.906;4.438;2023-01-29T13:27:49;4.70;99.90
19906;DHT22;10115;50.906;4.438;2023-01-29T13:32:51;4.70;99.90
19906;DHT22;10115;50.906;4.438;2023-01-29T13:35:20;4.60;99.90
19906;DHT22;10115;50.906;4.438;2023-01-29T13:37:52;4.60;99.90
19906;DHT22;10115;50.906;4.438;2023-01-29T13:40:26;4.50;99.90
19906;DHT22;10115;50.906;4.438;2023-01-29T13:42:54;4.60;99.90
19906;DHT22;10115;50.906;4.438;2023-01-29T13:48:09;4.50;99.90
19906;DHT22;10115;50.906;4.438;2023-01-29T13:50:40;4.70;99.90
19906;DHT22;10115;50.906;4.438;2023-01-29T13:53:15;4.60;99.90
19906;DHT22;10115;50.906;4.438;2023-01-29T13:55:42;4.50;99.90
19906;DHT22;10115;50.906;4.438;2023-01-29T13:58:16;4.40;99.90
19906;DHT22;10115;50.906;4.438;2023-01-29T14:05:39;4.30;99.90
19906;DHT22;10115;50.906;4.438;2023-01-29T14:13:42;4.30;99.90
19906;DHT22;10115;50.906;4.438;2023-01-29T14:21:33;4.40;99.90
19906;DHT22;10115;50.906;4.438;2023-01-29T14:31:46;4.30;99.90
19906;DHT22;10115;50.906;4.438;2023-01-29T14:34:25;4.40;99.90
19906;DHT22;10115;50.906;4.438;2023-01-29T14:36:55;4.40;99.90
19906;DHT22;10115;50.906;4.438;2023-01-29T14:39:34;4.20;99.90
19906;DHT22;10115;50.906;4.438;2023-01-29T14:42:04;4.20;99.90
19906;DHT22;10115;50.906;4.438;2023-01-29T14:44:46;4.30;99.90
19906;DHT22;10115;50.906;4.438;2023-01-29T14:50:36;4.30;99.90
19906;DHT22;10115;50.906;4.438;2023-01-29T14:52:50;4.30;99.90
19906;DHT22;10115;50.906;4.438;2023-01-29T14:55:29;4.30;99.90
19906;DHT22;10115;50.906;4.438;2023-01-29T14:58:00;4.40;99.90
19906;DHT22;10115;50.906;4.438;2023-01-29T15:00:29;4.20;99.90
19906;DHT22;10115;50.906;4.438;2023-01-29T15:02:56;4.30;99.90
19906;DHT22;10115;50.906;4.438;2023-01-29T15:05:28;4.30;99.90
19906;DHT22;10115;50.906;4.438;2023-01-29T15:10:46;4.20;99.90
19906;DHT22;10115;50.906;4.438;2023-01-29T15:16:04;4.00;99.90
19906;DHT22;10115;50.906;4.438;2023-01-29T15:18:39;4.00;99.90
19906;DHT22;10115;50.906;4.438;2023-01-29T15:21:14;4.00;99.90
19906;DHT22;10115;50.906;4.438;2023-01-29T15:23:41;4.00;99.90
19906;DHT22;10115;50.906;4.438;2023-01-29T15:26:20;4.00;99.90
19906;DHT22;10115;50.906;4.438;2023-01-29T15:28:58;3.90;99.90
19906;DHT22;10115;50.906;4.438;2023-01-29T15:31:24;3.90;99.90
19906;DHT22;10115;50.906;4.438;2023-01-29T15:33:52;3.80;99.90
19906;DHT22;10115;50.906;4.438;2023-01-29T15:36:22;3.80;99.90
19906;DHT22;10115;50.906;4.438;2023-01-29T15:39:21;3.80;99.90
19906;DHT22;10115;50.906;4.438;2023-01-29T15:41:48;3.70;99.90
19906;DHT22;10115;50.906;4.438;2023-01-29T15:44:22;3.80;99.90
19906;DHT22;10115;50.906;4.438;2023-01-29T15:46:53;3.70;99.90
19906;DHT22;10115;50.906;4.438;2023-01-29T15:49:31;3.70;99.90
19906;DHT22;10115;50.906;4.438;2023-01-29T15:52:05;3.70;99.90
19906;DHT22;10115;50.906;4.438;2023-01-29T15:54:34;3.70;99.90
19906;DHT22;10115;50.906;4.438;2023-01-29T15:57:00;3.70;99.90
19906;DHT22;10115;50.906;4.438;2023-01-29T15:59:33;3.70;99.90
19906;DHT22;10115;50.906;4.438;2023-01-29T16:04:54;3.70;99.90
19906;DHT22;10115;50.906;4.438;2023-01-29T16:07:20;3.70;99.90
19906;DHT22;10115;50.906;4.438;2023-01-29T16:09:47;3.70;99.90
19906;DHT22;10115;50.906;4.438;2023-01-29T16:12:13;3.80;99.90
19906;DHT22;10115;50.906;4.438;2023-01-29T16:14:40;3.80;99.90
19906;DHT22;10115;50.906;4.438;2023-01-29T16:17:23;3.80;99.90
19906;DHT22;10115;50.906;4.438;2023-01-29T16:19:57;3.80;99.90
19906;DHT22;10115;50.906;4.438;2023-01-29T16:22:32;3.70;99.90
19906;DHT22;10115;50.906;4.438;2023-01-29T16:25:03;3.70;99.90
19906;DHT22;10115;50.906;4.438;2023-01-29T16:27:30;3.70;99.90
19906;DHT22;10115;50.906;4.438;2023-01-29T16:29:56;3.70;99.90
19906;DHT22;10115;50.906;4.438;2023-01-29T16:32:22;3.70;99.90
19906;DHT22;10115;50.906;4.438;2023-01-29T16:34:48;3.80;99.90
19906;DHT22;10115;50.906;4.438;2023-01-29T16:37:28;3.80;99.90
19906;DHT22;10115;50.906;4.438;2023-01-29T16:39:55;3.70;99.90
19906;DHT22;10115;50.906;4.438;2023-01-29T16:42:29;3.70;99.90
19906;DHT22;10115;50.906;4.438;2023-01-29T16:45:01;3.80;99.90
19906;DHT22;10115;50.906;4.438;2023-01-29T16:47:38;3.80;99.90
19906;DHT22;10115;50.906;4.438;2023-01-29T16:50:29;3.80;99.90
19906;DHT22;10115;50.906;4.438;2023-01-29T16:53:18;3.80;99.90
19906;DHT22;10115;50.906;4.438;2023-01-29T16:55:47;3.70;99.90
19906;DHT22;10115;50.906;4.438;2023-01-29T16:58:18;3.70;99.90
19906;DHT22;10115;50.906;4.438;2023-01-29T17:00:47;3.80;99.90
19906;DHT22;10115;50.906;4.438;2023-01-29T17:03:14;3.90;99.90
19906;DHT22;10115;50.906;4.438;2023-01-29T17:05:42;3.90;99.90
19906;DHT22;10115;50.906;4.438;2023-01-29T17:08:34;3.70;99.90
19906;DHT22;10115;50.906;4.438;2023-01-29T17:11:00;3.70;99.90
19906;DHT22;10115;50.906;4.438;2023-01-29T17:13:29;3.70;99.90
19906;DHT22;10115;50.906;4.438;2023-01-29T17:16:00;3.70;99.90
19906;DHT22;10115;50.906;4.438;2023-01-29T17:18:28;3.70;99.90
19906;DHT22;10115;50.906;4.438;2023-01-29T17:20:54;3.70;99.90
19906;DHT22;10115;50.906;4.438;2023-01-29T17:23:20;3.70;99.90
19906;DHT22;10115;50.906;4.438;2023-01-29T17:25:46;3.70;99.90
19906;DHT22;10115;50.906;4.438;2023-01-29T17:28:14;3.80;99.90
19906;DHT22;10115;50.906;4.438;2023-01-29T17:30:41;3.70;99.90
19906;DHT22;10115;50.906;4.438;2023-01-29T17:33:17;3.70;99.90
19906;DHT22;10115;50.906;4.438;2023-01-29T17:35:48;3.70;99.90
19906;DHT22;10115;50.906;4.438;2023-01-29T17:38:16;3.70;99.90
19906;DHT22;10115;50.906;4.438;2023-01-29T17:43:29;3.60;99.90
19906;DHT22;10115;50.906;4.438;2023-01-29T17:45:54;3.70;99.90
19906;DHT22;10115;50.906;4.438;2023-01-29T17:48:28;3.70;99.90
19906;DHT22;10115;50.906;4.438;2023-01-29T17:50:58;3.80;99.90
19906;DHT22;10115;50.906;4.438;2023-01-29T17:53:25;3.70;99.90
19906;DHT22;10115;50.906;4.438;2023-01-29T17:55:50;3.60;99.90
19906;DHT22;10115;50.906;4.438;2023-01-29T17:58:18;3.60;99.90
19906;DHT22;10115;50.906;4.438;2023-01-29T18:00:44;3.70;99.90
19906;DHT22;10115;50.906;4.438;2023-01-29T18:03:10;3.70;99.90
19906;DHT22;10115;50.906;4.438;2023-01-29T18:05:36;3.70;99.90
19906;DHT22;10115;50.906;4.438;2023-01-29T18:08:02;3.70;99.90
19906;DHT22;10115;50.906;4.438;2023-01-29T18:10:28;3.70;99.90
19906;DHT22;10115;50.906;4.438;2023-01-29T18:12:53;3.60;99.90
19906;DHT22;10115;50.906;4.438;2023-01-29T18:15:19;3.50;99.90
19906;DHT22;10115;50.906;4.438;2023-01-29T18:17:45;3.60;99.90
19906;DHT22;10115;50.906;4.438;2023-01-29T18:20:22;3.40;99.90
19906;DHT22;10115;50.906;4.438;2023-01-29T18:22:50;3.40;99.90
19906;DHT22;10115;50.906;4.438;2023-01-29T18:25:16;3.40;99.90
19906;DHT22;10115;50.906;4.438;2023-01-29T18:27:44;3.40;99.90